Bookmark and Share
Track history (hours):
 

John_paul K

Last reported at 2014-Apr-18 07:33 UTC. Time now 2014-Apr-18 08:12 UTC.
Position N 35°59' W 005°11'.

Length 90 m; draft 4.9 m.

Type: Cargo ship. MMSI: 245181000.

NotesDate/timePositionNaut miles runAvg speedWind from/ knotsBaromVisibWave heightAir tempDewpointWater temp
2014-Apr-18 07:33N 35°59' W 005°11'1313.1
2014-Apr-18 06:33N 35°57' W 005°27'120 9.2
2014-Apr-17 17:29N 36°16' W 007°54'10 8.7
2014-Apr-17 16:18N 36°19' W 008°07'7 9.0
2014-Apr-17 15:33N 36°21' W 008°14'9 8.7
2014-Apr-17 14:34N 36°24' W 008°25'27 9.0
2014-Apr-17 11:32N 36°30' W 008°57'52 8.7
2014-Apr-17 05:32N 37°11' W 009°38'18 8.8
2014-Apr-17 03:32N 37°28' W 009°44'36 9.1
2014-Apr-16 23:33N 38°04' W 009°54'9 8.9
2014-Apr-16 22:33N 38°13' W 009°57'11 9.1
2014-Apr-16 21:20N 38°23' W 009°60'  
2014-Apr-12 20:33N 50°17' W 001°13'6 6.2
2014-Apr-12 19:33N 50°19' W 001°04'5 5.4
2014-Apr-12 18:33N 50°21' W 000°56'48 8.0
2014-Apr-12 12:34N 50°35' E 000°17'9 9.1
2014-Apr-12 11:33N 50°38' E 000°31'8 8.4
2014-Apr-12 10:33N 50°42' E 000°42'8 7.8
2014-Apr-12 09:33N 50°47' E 000°52'8 7.6
2014-Apr-12 08:34N 50°51' E 001°02'21 9.8
2014-Apr-12 06:22N 51°05' E 001°28'1012.0
2014-Apr-12 05:34N 51°11' E 001°40'1010.1
2014-Apr-12 04:33N 51°19' E 001°51'9 9.4
2014-Apr-12 03:33N 51°26' E 001°60'9 8.6
2014-Apr-12 02:33N 51°33' E 002°08'8 7.8
2014-Apr-12 01:33N 51°39' E 002°16'7 7.3
2014-Apr-12 00:33N 51°45' E 002°23'8 7.4
2014-Apr-11 23:30N 51°51' E 002°31'35 8.9
2014-Apr-11 19:33N 52°19' E 003°07'51 9.4
2014-Apr-11 14:07N 52°58' E 004°01'15 8.2
2014-Apr-11 12:20N 53°08' E 004°18'26 9.2
2014-Apr-11 09:33N 53°29' E 004°43'1010.0
2014-Apr-11 08:34N 53°32' E 004°59'1010.2
2014-Apr-11 07:33N 53°36' E 005°15'1110.9
2014-Apr-11 06:33N 53°39' E 005°32'8 8.1
2014-Apr-11 05:33N 53°42' E 005°45'8 7.8
2014-Apr-11 04:33N 53°44' E 005°58'8 7.8
2014-Apr-11 03:30N 53°47' E 006°11'19 8.8
2014-Apr-11 01:17N 53°52' E 006°43'7 9.6
2014-Apr-11 00:33N 53°54' E 006°54'10 9.7
2014-Apr-10 23:33N 53°56' E 007°10'10 9.7
2014-Apr-10 22:34N 53°59' E 007°26'9 9.3
2014-Apr-10 21:33N 54°01' E 007°41'9 8.8
2014-Apr-10 20:33N 54°01' E 007°56'9 8.5
2014-Apr-10 19:34N 54°00' E 008°11'10 9.5
2014-Apr-10 18:33N 53°59' E 008°27'9 8.6
2014-Apr-10 17:34N 53°56' E 008°40'10 9.5
2014-Apr-10 16:33N 53°51' E 008°53'1212.0
2014-Apr-10 15:33N 53°53' E 009°13'1312.7
2014-Apr-10 14:33N 53°43' E 009°28'1312.6
2014-Apr-10 13:33N 53°34' E 009°42'9 9.2
2014-Apr-10 12:33N 53°31' E 009°57'0 0.0
2014-Apr-10 11:30N 53°31' E 009°57'0 0.0
2014-Apr-10 10:33N 53°31' E 009°57'0 0.0
2014-Apr-10 09:30N 53°31' E 009°57'0 0.0
2014-Apr-10 08:33N 53°31' E 009°57'0 0.0
2014-Apr-10 07:30N 53°31' E 009°57'0 0.0
2014-Apr-10 06:33N 53°31' E 009°57'0 0.0
2014-Apr-10 05:33N 53°31' E 009°57'0 0.0
2014-Apr-10 04:30N 53°31' E 009°57'0 0.0
2014-Apr-10 03:33N 53°31' E 009°57'0 0.0
2014-Apr-10 02:33N 53°31' E 009°57'0 0.0
2014-Apr-10 01:30N 53°31' E 009°57'0 0.0
2014-Apr-10 00:30N 53°31' E 009°57'0 0.0
2014-Apr-09 23:33N 53°31' E 009°57'0 0.0
2014-Apr-09 22:30N 53°31' E 009°57'0 0.0
2014-Apr-09 21:24N 53°31' E 009°57'0 0.0
2014-Apr-09 20:33N 53°31' E 009°57'0 0.1
2014-Apr-09 19:33N 53°31' E 009°57'1 1.2
2014-Apr-09 18:33N 53°32' E 009°57'0 0.0
2014-Apr-09 17:33N 53°32' E 009°57'0 0.0
2014-Apr-09 16:33N 53°32' E 009°57'0 0.0
2014-Apr-09 15:33N 53°32' E 009°57'0 0.0
2014-Apr-09 14:33N 53°32' E 009°57'0 0.0
2014-Apr-09 13:27N 53°32' E 009°57'0 0.0
2014-Apr-09 12:33N 53°32' E 009°57'0 0.0
2014-Apr-09 11:33N 53°32' E 009°57'0 0.0
2014-Apr-09 10:33N 53°32' E 009°57'0 0.0
2014-Apr-09 09:33N 53°32' E 009°57'0 0.0
2014-Apr-09 08:33N 53°32' E 009°57'0 0.0
2014-Apr-09 07:33N 53°32' E 009°57'2 2.3
2014-Apr-09 06:33N 53°32' E 009°54'1212.4
2014-Apr-09 05:33N 53°37' E 009°34'1312.8
2014-Apr-09 04:33N 53°48' E 009°23'10 9.3
2014-Apr-09 03:31N 53°53' E 009°09'0 0.1
2014-Apr-09 02:31N 53°53' E 009°08'0 0.0
2014-Apr-09 01:28N 53°53' E 009°08'0 0.0
2014-Apr-09 00:28N 53°53' E 009°08'0 0.0
2014-Apr-08 23:31N 53°53' E 009°08'0 0.0
2014-Apr-08 22:31N 53°53' E 009°08'0 0.0
2014-Apr-08 21:28N 53°53' E 009°09'0 0.1
2014-Apr-08 20:31N 53°53' E 009°09'0 0.0
2014-Apr-08 19:31N 53°53' E 009°09'0 0.0
2014-Apr-08 18:28N 53°53' E 009°09'0 0.0
2014-Apr-08 17:31N 53°53' E 009°09'0 0.0
2014-Apr-08 16:31N 53°53' E 009°09'0 0.0
2014-Apr-08 15:31N 53°53' E 009°09'0 0.0
2014-Apr-08 14:31N 53°53' E 009°09'0 0.2
2014-Apr-08 13:34N 53°53' E 009°08'0 0.0
2014-Apr-08 12:33N 53°53' E 009°08'0 0.0
2014-Apr-08 11:33N 53°53' E 009°08'0 0.0
2014-Apr-08 10:33N 53°53' E 009°08'0 0.2
2014-Apr-08 09:33N 53°53' E 009°09'0 0.0
2014-Apr-08 08:33N 53°53' E 009°09'  

Dump ship's entire track history

sailing weather and tide predictions

John_paul K — PBHY — position and weather